<?xml version="1.0" encoding="utf-8"?>
<gpx xmlns:xsi="http://www.w3.org/2001/XMLSchema-instance" xmlns:xsd="http://www.w3.org/2001/XMLSchema" version="1.1" creator="Shapelink.com" xmlns="http://www.topografix.com/GPX/1/1" xmlns:gpxtpx="http://www.garmin.com/xmlschemas/TrackPointExtension/v1">
  <metadata>
    <name>Övrigt 1.12 km, 2020-06-09</name>
    <desc></desc>
    <author><name>Marian Moron</name></author> 
    <time>2020-06-09T18:18:12Z</time>
  </metadata>
  <trk>
    <name>Övrigt 1.12 km, 2020-06-09</name>
    <trkseg>
      <trkpt lat="51.229764936746" lon="4.457903372901">
        <ele>5.4</ele>
        <time>2020-06-09T18:18:12Z</time>
      </trkpt>
      <trkpt lat="51.229700479935" lon="4.457156294154">
        <ele>13.8</ele>
        <time>2020-06-09T18:18:51Z</time>
      </trkpt>
      <trkpt lat="51.230075905236" lon="4.456704342106">
        <ele>15.2</ele>
        <time>2020-06-09T18:19:26Z</time>
      </trkpt>
      <trkpt lat="51.230508411276" lon="4.45653553064">
        <ele>10.6</ele>
        <time>2020-06-09T18:20:04Z</time>
      </trkpt>
      <trkpt lat="51.230555769011" lon="4.456528908939">
        <ele>10.8</ele>
        <time>2020-06-09T18:20:08Z</time>
      </trkpt>
      <trkpt lat="51.230987688318" lon="4.456221125571">
        <ele>11.2</ele>
        <time>2020-06-09T18:20:47Z</time>
      </trkpt>
      <trkpt lat="51.231157002698" lon="4.456140156417">
        <ele>6.4</ele>
        <time>2020-06-09T18:21:00Z</time>
      </trkpt>
      <trkpt lat="51.231181729303" lon="4.456081734574">
        <ele>2.2</ele>
        <time>2020-06-09T18:21:06Z</time>
      </trkpt>
      <trkpt lat="51.231307038708" lon="4.456144179729">
        <ele>0</ele>
        <time>2020-06-09T18:21:25Z</time>
      </trkpt>
      <trkpt lat="51.231388929871" lon="4.456115848907">
        <ele>0</ele>
        <time>2020-06-09T18:21:40Z</time>
      </trkpt>
      <trkpt lat="51.231194972705" lon="4.455479578878">
        <ele>0</ele>
        <time>2020-06-09T18:22:20Z</time>
      </trkpt>
      <trkpt lat="51.2310864271" lon="4.454772481794">
        <ele>0</ele>
        <time>2020-06-09T18:23:00Z</time>
      </trkpt>
      <trkpt lat="51.231025825963" lon="4.45448447971">
        <ele>0</ele>
        <time>2020-06-09T18:23:17Z</time>
      </trkpt>
      <trkpt lat="51.230993890924" lon="4.454043340313">
        <ele>0</ele>
        <time>2020-06-09T18:23:41Z</time>
      </trkpt>
      <trkpt lat="51.230851482443" lon="4.453356862703">
        <ele>0</ele>
        <time>2020-06-09T18:24:24Z</time>
      </trkpt>
      <trkpt lat="51.230704883012" lon="4.452678515536">
        <ele>2</ele>
        <time>2020-06-09T18:25:06Z</time>
      </trkpt>
      <trkpt lat="51.23060530604" lon="4.451977704877">
        <ele>3.8</ele>
        <time>2020-06-09T18:25:45Z</time>
      </trkpt>
      <trkpt lat="51.230491647476" lon="4.451269518146">
        <ele>2.4</ele>
        <time>2020-06-09T18:26:23Z</time>
      </trkpt>
      <trkpt lat="51.230477733522" lon="4.451005404477">
        <ele>0</ele>
        <time>2020-06-09T18:26:36Z</time>
      </trkpt>
      <trkpt lat="51.230574209191" lon="4.450796611348">
        <ele>0</ele>
        <time>2020-06-09T18:28:39Z</time>
      </trkpt>
      <trkpt lat="51.230470189812" lon="4.450866935489">
        <ele>0</ele>
        <time>2020-06-09T18:30:45Z</time>
      </trkpt>
      <trkpt lat="51.230237089173" lon="4.450848998223">
        <ele>0</ele>
        <time>2020-06-09T18:31:12Z</time>
      </trkpt>
      <trkpt lat="51.230096440891" lon="4.450812620777">
        <ele>0</ele>
        <time>2020-06-09T18:31:26Z</time>
      </trkpt>
      <trkpt lat="51.229671478561" lon="4.450901636555">
        <ele>0</ele>
        <time>2020-06-09T18:32:09Z</time>
      </trkpt>
      <trkpt lat="51.229487244399" lon="4.450271652951">
        <ele>0</ele>
        <time>2020-06-09T18:32:50Z</time>
      </trkpt>
      <trkpt lat="51.229474420092" lon="4.449888600121">
        <ele>5</ele>
        <time>2020-06-09T18:33:18Z</time>
      </trkpt>
      <trkpt lat="51.229396216965" lon="4.44917706063">
        <ele>7.6</ele>
        <time>2020-06-09T18:33:57Z</time>
      </trkpt>
      <trkpt lat="51.229103101922" lon="4.448611617656">
        <ele>5.2</ele>
        <time>2020-06-09T18:34:38Z</time>
      </trkpt>
      <trkpt lat="51.228841502823" lon="4.44884346101">
        <ele>0.8</ele>
        <time>2020-06-09T18:35:29Z</time>
      </trkpt>
      <trkpt lat="51.228777046012" lon="4.449003387662">
        <ele>0</ele>
        <time>2020-06-09T18:35:41Z</time>
      </trkpt>
      <trkpt lat="51.228487619005" lon="4.449224586003">
        <ele>1.6</ele>
        <time>2020-06-09T18:37:48Z</time>
      </trkpt>
      <trkpt lat="51.22849642" lon="4.449218299578">
        <ele>2</ele>
        <time>2020-06-09T18:37:50Z</time>
      </trkpt>
      <trkpt lat="51.228588369443" lon="4.449151998749">
        <ele>0</ele>
        <time>2020-06-09T18:38:03Z</time>
      </trkpt>
      <trkpt lat="51.22865902886" lon="4.449057870012">
        <ele>0</ele>
        <time>2020-06-09T18:38:11Z</time>
      </trkpt>
    </trkseg>
  </trk>
</gpx>